Time;durP1;ratioP1;P1;durP2;ratioP2;P2;SDS_P1;SDS_P2;PMS_P1;PMS_P2;Temp;Humidity;BMP_temperature;BMP_pressure;BME280_temperature;BME280_humidity;BME280_pressure;Samples;Min_cycle;Max_cycle;Signal;HPM_P1;HPM_P2
2022/04/30 00:02:20;;;;;;;0.98;0.90;;;16.40;57.80;;;;;;5005268;28;20416;-57
2022/04/30 00:04:51;;;;;;;1.13;0.80;;;16.50;57.80;;;;;;5009474;28;20197;-57
2022/04/30 00:07:22;;;;;;;1.10;0.88;;;16.50;57.80;;;;;;5008913;28;20267;-55
2022/04/30 00:09:53;;;;;;;0.98;0.88;;;16.50;58.10;;;;;;5007169;28;20193;-58
2022/04/30 00:12:25;;;;;;;1.33;1.00;;;16.50;59.30;;;;;;5009420;28;20229;-56
2022/04/30 00:14:56;;;;;;;1.13;0.73;;;16.60;59.70;;;;;;5006870;28;20603;-55
2022/04/30 00:17:29;;;;;;;1.83;0.88;;;16.60;59.70;;;;;;5008576;28;20684;-57
2022/04/30 00:19:59;;;;;;;1.33;0.93;;;16.70;59.50;;;;;;5008371;28;20731;-57
2022/04/30 00:22:30;;;;;;;1.50;1.20;;;16.70;59.40;;;;;;5010402;28;20225;-57
2022/04/30 00:25:01;;;;;;;1.27;0.85;;;16.80;59.30;;;;;;5009881;28;20193;-57
2022/04/30 00:27:31;;;;;;;1.30;0.90;;;16.80;59.10;;;;;;5009228;28;20267;-56
2022/04/30 00:30:02;;;;;;;1.85;0.90;;;16.90;59.10;;;;;;5010072;28;20197;-56
2022/04/30 00:32:34;;;;;;;1.30;1.08;;;16.90;59.00;;;;;;5010833;28;20193;-56
2022/04/30 00:35:05;;;;;;;1.85;0.70;;;16.90;58.90;;;;;;5009240;28;20263;-57
2022/04/30 00:37:36;;;;;;;0.98;0.85;;;17.00;58.90;;;;;;5009088;28;20263;-58
2022/04/30 00:40:07;;;;;;;1.20;0.90;;;17.00;58.80;;;;;;5009251;28;20368;-56
2022/04/30 00:42:37;;;;;;;1.30;0.73;;;17.10;58.80;;;;;;5009255;28;20263;-56
2022/04/30 00:45:09;;;;;;;1.42;0.98;;;17.10;58.80;;;;;;5009348;28;20544;-54
2022/04/30 00:47:41;;;;;;;1.98;1.10;;;17.10;58.80;;;;;;5008733;28;20330;-57
2022/04/30 00:50:16;;;;;;;1.17;0.70;;;17.10;58.70;;;;;;5009553;28;20258;-56
2022/04/30 00:52:48;;;;;;;1.27;0.90;;;17.20;58.80;;;;;;5009018;28;20200;-56
2022/04/30 00:55:24;;;;;;;2.20;1.05;;;17.20;58.70;;;;;;5009335;28;20253;-54
2022/04/30 00:58:00;;;;;;;1.38;0.80;;;17.30;58.70;;;;;;5009527;28;20248;-56
2022/04/30 01:00:31;;;;;;;2.05;1.10;;;17.30;58.70;;;;;;5010380;28;20197;-56
2022/04/30 01:03:04;;;;;;;2.40;1.13;;;17.30;58.60;;;;;;5009349;28;20248;-56
2022/04/30 01:05:36;;;;;;;1.85;0.80;;;17.30;58.60;;;;;;5009841;28;20228;-55
2022/04/30 01:08:07;;;;;;;1.20;0.90;;;17.40;59.20;;;;;;5008941;28;20291;-54
2022/04/30 01:10:38;;;;;;;1.10;0.90;;;17.40;58.70;;;;;;5009118;28;20200;-56
2022/04/30 01:13:13;;;;;;;2.03;1.02;;;17.40;58.60;;;;;;5008687;28;20233;-56
2022/04/30 01:15:43;;;;;;;2.97;0.90;;;17.50;58.60;;;;;;5008726;28;20687;-56
2022/04/30 01:18:16;;;;;;;1.88;0.80;;;17.50;58.50;;;;;;5009550;28;20199;-57
2022/04/30 01:20:51;;;;;;;1.95;0.90;;;17.50;58.50;;;;;;5007615;28;20196;-55
2022/04/30 01:23:26;;;;;;;3.03;1.20;;;17.60;58.40;;;;;;5009389;28;20286;-54
2022/04/30 01:25:57;;;;;;;2.60;1.00;;;17.60;58.50;;;;;;5008604;28;20212;-54
2022/04/30 01:28:28;;;;;;;1.30;1.20;;;17.60;58.70;;;;;;5009161;28;20766;-55
2022/04/30 01:30:58;;;;;;;1.77;0.90;;;17.60;58.90;;;;;;5008982;28;20283;-56
2022/04/30 01:39:18;;;;;;;1.60;1.02;;;17.80;58.90;;;;;;4985974;28;20199;-54
2022/04/30 01:41:48;;;;;;;1.13;0.90;;;17.80;58.80;;;;;;4986781;28;20283;-58
2022/04/30 01:44:19;;;;;;;2.40;1.15;;;17.80;58.70;;;;;;4997287;28;20251;-55
2022/04/30 01:46:51;;;;;;;2.95;1.30;;;17.80;58.70;;;;;;5008574;28;20213;-55
2022/04/30 01:49:21;;;;;;;2.65;1.23;;;17.90;58.70;;;;;;5006745;28;20711;-57
2022/04/30 01:51:53;;;;;;;1.95;1.20;;;17.90;58.60;;;;;;5009051;28;20259;-57
2022/04/30 01:54:25;;;;;;;1.45;0.90;;;17.90;58.50;;;;;;5007728;28;20192;-56
2022/04/30 01:56:56;;;;;;;1.95;1.02;;;17.90;58.40;;;;;;5008000;28;20248;-55
2022/04/30 01:59:26;;;;;;;1.17;0.90;;;18.00;58.40;;;;;;5008981;28;20636;-55
2022/04/30 02:01:59;;;;;;;1.38;1.00;;;18.00;58.40;;;;;;5009253;28;20221;-56
2022/04/30 02:04:31;;;;;;;1.55;0.93;;;18.10;58.40;;;;;;5007966;28;20211;-57
2022/04/30 02:07:02;;;;;;;2.67;1.67;;;18.10;58.30;;;;;;5009116;28;20314;-54
2022/04/30 02:09:35;;;;;;;19.63;7.03;;;18.10;58.40;;;;;;5006734;28;20194;-56
2022/04/30 02:12:06;;;;;;;17.63;6.75;;;18.20;59.30;;;;;;5003247;28;20339;-51
2022/04/30 02:14:40;;;;;;;15.32;6.25;;;18.20;59.90;;;;;;4972043;28;20276;-55
2022/04/30 02:17:13;;;;;;;12.93;5.38;;;18.30;60.20;;;;;;4971537;28;20327;-55
2022/04/30 02:22:31;;;;;;;11.23;4.30;;;18.40;60.30;;;;;;4970568;28;20332;-57
2022/04/30 02:25:05;;;;;;;11.70;4.07;;;18.60;60.30;;;;;;4971171;28;20198;-54
2022/04/30 02:27:35;;;;;;;6.50;3.30;;;18.60;60.30;;;;;;4970530;28;20222;-57
2022/04/30 02:30:07;;;;;;;8.75;3.67;;;18.70;60.40;;;;;;4989226;28;20197;-58
2022/04/30 02:32:43;;;;;;;9.60;3.97;;;18.80;60.30;;;;;;4989944;28;20202;-58
2022/04/30 02:35:14;;;;;;;7.90;3.45;;;18.80;60.10;;;;;;4990848;28;20561;-57
2022/04/30 02:37:46;;;;;;;9.50;3.20;;;18.90;60.60;;;;;;4990415;28;20221;-57
2022/04/30 02:40:19;;;;;;;6.50;3.55;;;19.00;59.80;;;;;;4990165;28;20233;-56
2022/04/30 02:42:51;;;;;;;8.70;3.80;;;19.00;59.60;;;;;;4989198;28;20261;-58
2022/04/30 02:45:23;;;;;;;10.88;3.88;;;19.10;59.50;;;;;;4990082;28;20197;-56
2022/04/30 02:47:56;;;;;;;6.38;3.05;;;19.10;59.40;;;;;;4990393;28;20217;-57
2022/04/30 02:50:27;;;;;;;13.10;3.70;;;19.10;59.20;;;;;;4990407;28;20201;-57
2022/04/30 02:52:58;;;;;;;8.10;3.28;;;19.20;59.10;;;;;;4990540;28;20201;-57
2022/04/30 02:55:31;;;;;;;9.85;3.38;;;19.20;59.00;;;;;;4990407;28;20208;-57
2022/04/30 03:00:50;;;;;;;9.65;3.22;;;19.30;58.80;;;;;;4989833;28;20214;-57
2022/04/30 03:03:21;;;;;;;8.80;3.50;;;19.30;58.70;;;;;;4990289;28;20955;-58
2022/04/30 03:05:53;;;;;;;7.95;3.28;;;19.40;58.70;;;;;;4990440;28;20284;-56
2022/04/30 03:08:26;;;;;;;5.82;3.00;;;19.40;58.60;;;;;;4990149;28;20209;-56
2022/04/30 03:11:00;;;;;;;7.65;2.95;;;19.40;58.50;;;;;;4990134;28;20254;-57
2022/04/30 03:13:31;;;;;;;6.78;2.80;;;19.40;58.50;;;;;;4989480;28;20197;-57
2022/04/30 03:21:41;;;;;;;9.02;3.38;;;19.40;58.40;;;;;;4990021;28;20685;-56
2022/04/30 03:21:46;;;;;;;7.03;3.30;;;19.50;58.30;;;;;;4990231;28;20197;-57
2022/04/30 03:24:18;;;;;;;8.05;3.03;;;19.60;58.20;;;;;;4990037;28;20245;-57
2022/04/30 03:26:51;;;;;;;6.35;2.75;;;19.60;58.20;;;;;;4989733;28;20284;-56
2022/04/30 03:29:23;;;;;;;6.78;2.83;;;19.60;58.10;;;;;;4989722;28;20198;-56
2022/04/30 03:31:53;;;;;;;8.00;3.03;;;19.60;58.00;;;;;;4990550;28;20197;-57
2022/04/30 03:34:24;;;;;;;6.38;2.90;;;19.60;58.00;;;;;;4993031;28;20243;-57
2022/04/30 03:36:55;;;;;;;4.93;2.63;;;19.70;58.00;;;;;;4992751;28;20217;-57
2022/04/30 03:39:25;;;;;;;5.35;2.50;;;19.70;57.90;;;;;;4993171;28;20202;-57
2022/04/30 03:41:57;;;;;;;5.13;2.53;;;19.80;57.90;;;;;;4992937;28;20197;-57
2022/04/30 03:44:28;;;;;;;5.55;2.92;;;19.80;57.80;;;;;;4993059;28;20649;-57
2022/04/30 03:46:58;;;;;;;5.68;2.85;;;19.80;57.70;;;;;;4992881;28;20264;-57
2022/04/30 03:49:29;;;;;;;7.10;2.47;;;19.80;57.60;;;;;;4993110;28;20228;-57
2022/04/30 03:52:00;;;;;;;4.75;2.67;;;19.80;57.60;;;;;;4988651;28;20244;-57
2022/04/30 03:54:30;;;;;;;5.10;2.55;;;19.90;57.60;;;;;;4973645;28;20202;-56
2022/04/30 03:57:02;;;;;;;5.82;2.70;;;19.90;57.50;;;;;;4973468;28;20748;-57
2022/04/30 03:59:33;;;;;;;5.03;2.80;;;19.90;57.50;;;;;;4984875;28;20201;-58
2022/04/30 04:02:04;;;;;;;6.05;2.85;;;19.90;57.50;;;;;;4992721;28;20248;-57
2022/04/30 04:04:34;;;;;;;6.03;2.83;;;20.00;57.50;;;;;;4991998;28;20201;-57
2022/04/30 04:07:05;;;;;;;4.85;2.42;;;20.00;57.50;;;;;;4992069;28;20222;-57
2022/04/30 04:09:36;;;;;;;5.75;2.72;;;20.00;57.50;;;;;;4992737;28;20252;-57
2022/04/30 04:12:09;;;;;;;5.72;2.80;;;20.10;57.50;;;;;;4989895;28;20201;-58
2022/04/30 04:17:41;;;;;;;6.45;2.75;;;20.10;57.40;;;;;;4992231;28;20584;-56
2022/04/30 04:20:13;;;;;;;4.53;2.25;;;20.10;57.40;;;;;;4992718;28;20201;-57
2022/04/30 04:22:44;;;;;;;4.72;2.50;;;20.10;57.30;;;;;;4992888;28;20292;-57
2022/04/30 04:28:04;;;;;;;6.45;2.60;;;20.20;57.40;;;;;;4992221;28;20236;-58
2022/04/30 04:30:35;;;;;;;5.07;2.55;;;20.20;57.30;;;;;;4991661;28;20193;-57
2022/04/30 04:33:06;;;;;;;4.28;2.17;;;20.20;57.30;;;;;;4991977;28;20709;-57
2022/04/30 04:35:37;;;;;;;3.80;2.17;;;20.20;57.30;;;;;;4992033;28;20201;-57
2022/04/30 04:38:07;;;;;;;3.95;2.20;;;20.20;57.20;;;;;;4992141;28;20225;-58
2022/04/30 04:40:38;;;;;;;5.97;2.55;;;20.20;57.20;;;;;;4992130;28;20229;-57
2022/04/30 04:43:10;;;;;;;5.97;2.67;;;20.20;57.20;;;;;;4991606;28;20752;-57
2022/04/30 04:45:42;;;;;;;4.95;2.50;;;20.30;57.20;;;;;;4991594;28;20293;-58
2022/04/30 04:48:12;;;;;;;5.50;2.65;;;20.30;57.20;;;;;;4991653;28;20609;-58
2022/04/30 04:50:43;;;;;;;5.18;2.33;;;20.30;57.10;;;;;;4991750;28;20198;-56
2022/04/30 04:53:14;;;;;;;6.32;2.45;;;20.30;57.10;;;;;;4991565;28;20202;-57
2022/04/30 04:55:45;;;;;;;6.55;2.50;;;20.30;57.10;;;;;;4991607;28;20529;-58
2022/04/30 04:58:17;;;;;;;5.05;2.42;;;20.30;57.10;;;;;;4991310;28;20557;-57
2022/04/30 05:00:48;;;;;;;4.38;2.60;;;20.40;57.10;;;;;;4991575;28;20205;-57
2022/04/30 05:03:19;;;;;;;4.85;2.67;;;20.30;57.10;;;;;;4991877;28;20335;-57
2022/04/30 05:05:50;;;;;;;4.20;2.65;;;20.30;57.10;;;;;;4997990;28;20727;-56
2022/04/30 05:08:20;;;;;;;2.65;2.13;;;20.30;57.00;;;;;;5007457;28;20207;-57
2022/04/30 05:10:51;;;;;;;5.95;2.78;;;20.40;57.10;;;;;;5006858;28;20327;-56
2022/04/30 05:13:23;;;;;;;5.57;2.80;;;20.40;57.10;;;;;;5008677;28;20232;-56
2022/04/30 05:15:54;;;;;;;4.22;2.50;;;20.40;57.00;;;;;;5008748;28;20196;-57
2022/04/30 05:18:24;;;;;;;3.90;2.53;;;20.30;56.90;;;;;;5009868;28;20638;-57
2022/04/30 05:20:55;;;;;;;5.88;2.60;;;20.40;56.90;;;;;;5009419;28;20682;-57
2022/04/30 05:23:26;;;;;;;4.85;2.45;;;20.40;56.90;;;;;;5009060;28;20227;-57
2022/04/30 05:25:56;;;;;;;4.53;2.70;;;20.40;56.90;;;;;;5008697;28;20486;-58
2022/04/30 05:28:28;;;;;;;4.22;2.65;;;20.40;56.90;;;;;;5006260;28;20313;-59
2022/04/30 05:30:59;;;;;;;3.97;2.58;;;20.40;56.90;;;;;;5009061;28;20205;-60
2022/04/30 05:33:34;;;;;;;3.58;2.67;;;20.40;56.80;;;;;;5009152;28;20679;-59
2022/04/30 05:36:05;;;;;;;4.80;3.05;;;20.30;56.70;;;;;;5008352;28;20307;-58
2022/04/30 05:38:36;;;;;;;6.63;2.92;;;20.30;56.70;;;;;;5009134;28;20197;-58
2022/04/30 05:41:06;;;;;;;5.15;3.10;;;20.30;56.70;;;;;;5007222;28;20251;-57
2022/04/30 05:43:39;;;;;;;3.55;2.42;;;20.30;56.60;;;;;;5005856;28;20314;-59
2022/04/30 05:46:09;;;;;;;4.85;2.88;;;20.30;56.60;;;;;;5004553;28;20240;-57
2022/04/30 05:48:40;;;;;;;4.15;2.70;;;20.30;56.60;;;;;;5008324;28;20610;-56
2022/04/30 05:51:11;;;;;;;3.70;2.60;;;20.30;56.70;;;;;;5008452;28;20371;-56
2022/04/30 05:53:41;;;;;;;3.05;2.35;;;20.30;56.70;;;;;;5008954;28;20261;-57
2022/04/30 05:56:12;;;;;;;3.25;2.30;;;20.30;56.70;;;;;;5007560;28;20244;-57
2022/04/30 05:58:44;;;;;;;3.78;2.65;;;20.30;56.70;;;;;;5008404;28;20251;-57
2022/04/30 06:01:14;;;;;;;4.22;2.70;;;20.30;56.60;;;;;;5007031;28;20263;-57
2022/04/30 06:03:47;;;;;;;3.45;2.40;;;20.20;56.60;;;;;;5008298;28;20708;-57
2022/04/30 06:06:19;;;;;;;4.10;3.03;;;20.20;56.60;;;;;;5007782;28;20213;-57
2022/04/30 06:08:50;;;;;;;3.75;2.60;;;20.20;56.60;;;;;;5006529;28;20212;-56
2022/04/30 06:11:21;;;;;;;4.05;2.75;;;20.20;56.50;;;;;;5008072;28;20197;-56
2022/04/30 06:13:53;;;;;;;4.68;2.90;;;20.20;56.50;;;;;;5007421;28;20649;-59
2022/04/30 06:16:24;;;;;;;4.78;2.75;;;20.10;56.50;;;;;;5003359;28;20275;-57
2022/04/30 06:18:54;;;;;;;3.58;2.53;;;20.10;56.40;;;;;;5008255;28;20224;-57
2022/04/30 06:21:25;;;;;;;4.07;2.92;;;20.10;56.40;;;;;;5007980;28;20267;-57
2022/04/30 06:23:55;;;;;;;4.53;2.70;;;20.10;56.40;;;;;;5007372;28;20260;-57
2022/04/30 06:26:26;;;;;;;3.88;2.67;;;20.10;56.50;;;;;;5008377;28;20768;-57
2022/04/30 06:28:58;;;;;;;4.10;2.83;;;20.10;56.50;;;;;;5007175;28;20328;-58
2022/04/30 06:31:29;;;;;;;3.65;2.47;;;20.00;56.50;;;;;;5008113;28;20271;-58
2022/04/30 06:33:59;;;;;;;3.35;2.60;;;20.00;56.50;;;;;;5007792;28;20252;-59
2022/04/30 06:36:30;;;;;;;2.80;2.50;;;20.00;56.60;;;;;;5006565;28;20291;-58
2022/04/30 06:39:00;;;;;;;4.43;2.80;;;20.00;56.60;;;;;;5008076;28;20555;-59
2022/04/30 06:41:31;;;;;;;4.65;2.65;;;20.00;56.60;;;;;;5006595;28;20243;-59
2022/04/30 06:44:03;;;;;;;3.63;2.65;;;19.90;56.60;;;;;;5007903;28;20225;-58
2022/04/30 06:46:34;;;;;;;3.65;2.47;;;19.90;56.50;;;;;;5006906;28;20217;-59
2022/04/30 06:49:05;;;;;;;3.95;2.83;;;19.90;56.50;;;;;;5007833;28;20605;-58
2022/04/30 06:51:35;;;;;;;4.72;2.70;;;19.90;56.60;;;;;;5006114;28;20220;-58
2022/04/30 06:57:11;;;;;;;3.70;2.70;;;19.80;56.50;;;;;;5006680;28;20703;-59
2022/04/30 06:59:45;;;;;;;4.55;3.03;;;19.80;56.50;;;;;;5006496;28;20631;-58
2022/04/30 07:02:21;;;;;;;3.40;2.85;;;19.80;56.40;;;;;;5006970;28;20678;-58
2022/04/30 07:04:53;;;;;;;4.32;3.00;;;19.80;56.40;;;;;;5006927;28;20311;-59
2022/04/30 07:07:24;;;;;;;4.72;3.05;;;19.80;56.50;;;;;;5006914;28;20300;-59
2022/04/30 07:09:54;;;;;;;3.75;2.95;;;19.70;56.50;;;;;;5010543;28;20193;-59
2022/04/30 07:12:25;;;;;;;5.18;2.90;;;19.70;56.50;;;;;;5010116;28;20252;-58
2022/04/30 07:14:57;;;;;;;3.78;2.67;;;19.70;56.60;;;;;;5010903;28;20237;-59
2022/04/30 07:17:28;;;;;;;3.13;2.70;;;19.70;56.60;;;;;;5010499;28;20282;-59
2022/04/30 07:19:58;;;;;;;3.85;2.83;;;19.60;56.50;;;;;;5010632;28;20197;-59
2022/04/30 07:22:29;;;;;;;4.15;2.80;;;19.60;56.60;;;;;;5011198;28;20648;-59
2022/04/30 07:24:59;;;;;;;4.00;3.10;;;19.60;56.60;;;;;;5010739;28;20225;-58
2022/04/30 07:27:30;;;;;;;3.88;2.70;;;19.60;56.60;;;;;;5010165;28;20294;-59
2022/04/30 07:30:03;;;;;;;3.60;3.10;;;19.60;56.60;;;;;;4995487;28;20248;-59
2022/04/30 07:32:33;;;;;;;3.80;2.85;;;19.60;56.50;;;;;;4994828;28;20204;-58
2022/04/30 07:35:04;;;;;;;3.85;2.85;;;19.60;56.50;;;;;;4993005;28;20205;-58
2022/04/30 07:37:34;;;;;;;4.07;2.80;;;19.50;56.50;;;;;;4994787;28;20756;-59
2022/04/30 07:40:05;;;;;;;5.57;3.17;;;19.50;56.50;;;;;;4994499;28;20315;-59
2022/04/30 07:42:35;;;;;;;4.28;2.92;;;19.50;56.50;;;;;;4994142;28;20707;-59
2022/04/30 07:45:08;;;;;;;3.45;3.00;;;19.40;56.50;;;;;;4994008;28;20226;-59
2022/04/30 07:47:39;;;;;;;4.32;2.88;;;19.40;56.50;;;;;;4994362;28;20732;-58
2022/04/30 07:50:10;;;;;;;3.53;2.85;;;19.40;56.50;;;;;;4995012;28;20256;-59
2022/04/30 07:52:41;;;;;;;3.95;2.80;;;19.40;56.50;;;;;;4994836;28;20193;-58
2022/04/30 07:55:12;;;;;;;4.28;3.22;;;19.40;56.50;;;;;;4994822;28;20201;-59
2022/04/30 07:57:43;;;;;;;4.95;3.10;;;19.40;56.70;;;;;;4994001;28;20221;-59
2022/04/30 08:00:16;;;;;;;3.70;3.10;;;19.30;56.70;;;;;;4993807;28;20197;-58
2022/04/30 08:02:47;;;;;;;4.15;3.10;;;19.30;56.70;;;;;;4993568;28;20189;-59
2022/04/30 08:05:18;;;;;;;4.07;2.95;;;19.30;56.80;;;;;;4994890;28;20832;-58
2022/04/30 08:07:48;;;;;;;3.15;2.85;;;19.30;56.80;;;;;;4994569;28;20685;-59
2022/04/30 08:10:19;;;;;;;4.45;3.20;;;19.20;56.90;;;;;;4994017;28;20260;-58
2022/04/30 08:12:49;;;;;;;3.97;3.08;;;19.20;56.70;;;;;;4994317;28;20256;-59
2022/04/30 08:15:22;;;;;;;3.95;3.20;;;19.20;56.80;;;;;;4993745;28;20247;-58
2022/04/30 08:17:52;;;;;;;4.57;3.40;;;19.20;56.70;;;;;;4993471;28;20256;-59
2022/04/30 08:20:23;;;;;;;4.03;3.13;;;19.20;56.80;;;;;;4993880;28;20760;-59
2022/04/30 08:22:54;;;;;;;4.57;3.40;;;19.20;57.30;;;;;;4994226;28;20256;-58
2022/04/30 08:25:24;;;;;;;3.85;2.83;;;19.10;56.70;;;;;;4994264;28;20292;-58
2022/04/30 08:27:55;;;;;;;4.38;3.25;;;19.10;56.70;;;;;;4993602;28;20639;-58
2022/04/30 08:30:27;;;;;;;3.55;3.08;;;19.10;56.70;;;;;;4993453;28;20233;-58
2022/04/30 08:32:58;;;;;;;4.10;3.17;;;19.10;56.80;;;;;;4993952;28;20197;-58
2022/04/30 08:35:28;;;;;;;3.95;3.00;;;19.10;56.70;;;;;;4993839;28;20205;-58
2022/04/30 08:37:59;;;;;;;4.47;3.40;;;19.00;57.30;;;;;;4993074;28;20228;-58
2022/04/30 08:40:29;;;;;;;3.97;2.92;;;19.00;56.70;;;;;;4993574;28;20206;-58
2022/04/30 08:43:10;;;;;;;4.60;3.42;;;19.00;56.70;;;;;;4993590;28;20252;-59
2022/04/30 08:45:44;;;;;;;5.20;3.78;;;19.00;56.70;;;;;;4993226;28;20724;-58
2022/04/30 08:48:16;;;;;;;3.80;3.40;;;19.00;56.80;;;;;;4993749;28;20192;-59
2022/04/30 08:50:48;;;;;;;3.85;3.15;;;18.90;56.70;;;;;;4993782;28;20194;-59
2022/04/30 08:53:18;;;;;;;3.85;3.15;;;18.90;56.80;;;;;;4993557;28;20202;-58
2022/04/30 08:55:49;;;;;;;4.38;3.10;;;18.90;56.80;;;;;;4993351;28;20198;-58
2022/04/30 08:58:19;;;;;;;3.97;3.55;;;18.90;56.80;;;;;;4993140;28;20645;-59
2022/04/30 09:00:52;;;;;;;4.30;3.50;;;18.90;56.80;;;;;;4992918;28;20198;-59
2022/04/30 09:03:23;;;;;;;3.85;3.47;;;18.80;56.80;;;;;;4993426;28;20198;-59
2022/04/30 09:05:54;;;;;;;3.83;3.10;;;18.80;56.80;;;;;;4993265;28;20237;-58
2022/04/30 09:08:24;;;;;;;4.03;3.17;;;18.80;56.80;;;;;;4993653;28;20193;-59
2022/04/30 09:11:06;;;;;;;4.22;3.00;;;18.80;56.90;;;;;;4992816;28;20280;-58
2022/04/30 09:13:45;;;;;;;3.38;3.08;;;18.80;56.80;;;;;;4992518;28;20197;-58
2022/04/30 09:16:24;;;;;;;4.07;3.40;;;18.80;56.90;;;;;;4992106;28;20217;-59
2022/04/30 09:18:55;;;;;;;4.32;3.33;;;18.80;56.90;;;;;;4992788;28;20676;-59
2022/04/30 09:21:26;;;;;;;3.75;3.15;;;18.80;56.90;;;;;;4993216;28;20198;-58
2022/04/30 09:24:05;;;;;;;3.30;2.75;;;18.80;56.90;;;;;;4992959;28;20307;-57
2022/04/30 09:26:43;;;;;;;3.90;3.15;;;18.70;56.90;;;;;;4994945;28;20212;-58
2022/04/30 09:29:23;;;;;;;3.85;3.00;;;18.70;56.90;;;;;;5009280;28;20201;-56
2022/04/30 09:31:56;;;;;;;4.07;3.00;;;18.70;57.00;;;;;;5009127;28;20189;-56
2022/04/30 09:37:46;;;;;;;3.55;3.13;;;18.70;57.00;;;;;;5008585;28;20264;-57
2022/04/30 09:40:26;;;;;;;4.07;2.83;;;18.60;57.00;;;;;;5008449;28;20201;-57
2022/04/30 09:42:56;;;;;;;4.07;3.10;;;18.60;57.00;;;;;;5008351;28;20213;-55
2022/04/30 09:45:29;;;;;;;2.95;2.65;;;18.60;57.00;;;;;;5007090;28;20232;-57
2022/04/30 09:53:56;;;;;;;4.00;2.80;;;18.60;57.00;;;;;;5008205;28;20217;-58
2022/04/30 09:54:00;;;;;;;4.00;3.33;;;18.60;57.00;;;;;;5008914;28;20215;-58
2022/04/30 09:56:41;;;;;;;4.40;2.85;;;18.60;57.00;;;;;;5008925;28;20213;-58
2022/04/30 09:59:12;;;;;;;3.13;2.83;;;18.60;57.10;;;;;;5009155;28;20283;-58
2022/04/30 10:01:43;;;;;;;3.45;2.85;;;18.60;57.10;;;;;;5008088;28;20743;-56
2022/04/30 10:04:16;;;;;;;2.65;2.30;;;18.60;57.10;;;;;;5008243;28;20252;-58
2022/04/30 10:06:48;;;;;;;3.53;3.05;;;18.60;57.10;;;;;;5007874;28;20574;-57
2022/04/30 10:09:20;;;;;;;3.55;3.25;;;18.60;57.10;;;;;;5009261;28;20200;-57
2022/04/30 10:12:03;;;;;;;3.22;2.85;;;18.50;57.10;;;;;;5008350;28;20239;-56
2022/04/30 10:14:50;;;;;;;3.17;2.78;;;18.50;57.10;;;;;;5006209;28;20205;-57
2022/04/30 10:17:23;;;;;;;2.90;2.42;;;18.50;57.10;;;;;;5008464;28;20605;-57
2022/04/30 10:20:08;;;;;;;3.65;2.72;;;18.50;57.00;;;;;;5006900;28;20243;-58
2022/04/30 10:22:38;;;;;;;3.00;2.70;;;18.50;57.10;;;;;;5008931;28;20554;-58
2022/04/30 10:25:09;;;;;;;3.58;2.63;;;18.50;57.10;;;;;;5008265;28;20351;-57
2022/04/30 10:27:45;;;;;;;3.03;2.72;;;18.50;57.10;;;;;;5009114;28;20216;-59
2022/04/30 10:30:27;;;;;;;2.97;2.42;;;18.50;57.60;;;;;;5007757;28;20224;-56
2022/04/30 10:33:06;;;;;;;3.67;2.75;;;18.50;57.10;;;;;;5008065;28;20201;-57
2022/04/30 10:35:39;;;;;;;2.78;2.33;;;18.50;57.00;;;;;;5008222;28;20768;-58
2022/04/30 10:38:13;;;;;;;2.72;2.38;;;18.50;57.00;;;;;;5008273;28;20197;-57
2022/04/30 10:40:47;;;;;;;3.13;2.53;;;18.50;57.10;;;;;;5007872;28;20228;-56
2022/04/30 10:43:23;;;;;;;2.90;2.63;;;18.50;57.00;;;;;;5011899;28;20204;-58
2022/04/30 10:45:53;;;;;;;3.40;2.22;;;18.50;57.10;;;;;;5012217;28;20787;-56
2022/04/30 10:48:24;;;;;;;2.40;2.20;;;18.50;57.00;;;;;;5011831;28;20196;-57
2022/04/30 10:51:07;;;;;;;3.17;2.55;;;18.50;57.00;;;;;;5012006;28;20541;-58
2022/04/30 10:53:41;;;;;;;3.15;2.70;;;18.50;57.10;;;;;;5012702;28;20189;-58
2022/04/30 10:56:13;;;;;;;2.35;2.15;;;18.50;57.00;;;;;;5011798;28;20785;-58
2022/04/30 10:58:44;;;;;;;2.47;2.15;;;18.50;57.00;;;;;;5010846;28;20237;-58
2022/04/30 11:01:15;;;;;;;3.22;2.50;;;18.50;57.00;;;;;;5000532;28;20262;-56
2022/04/30 11:03:46;;;;;;;2.80;2.60;;;18.50;57.00;;;;;;5010358;28;20197;-57
2022/04/30 11:06:21;;;;;;;2.50;2.17;;;18.50;57.00;;;;;;5010495;28;20260;-58
2022/04/30 11:09:02;;;;;;;2.88;2.42;;;18.50;57.00;;;;;;5012117;28;20255;-57
2022/04/30 11:11:33;;;;;;;3.33;2.30;;;18.50;57.00;;;;;;5012324;28;20200;-58
2022/04/30 11:14:05;;;;;;;2.40;2.20;;;18.50;57.00;;;;;;5012300;28;20665;-60
2022/04/30 11:16:36;;;;;;;2.38;2.17;;;18.50;56.90;;;;;;5012581;28;20209;-59
2022/04/30 11:19:09;;;;;;;2.92;2.17;;;18.50;56.90;;;;;;5011794;28;20224;-57
2022/04/30 11:21:43;;;;;;;2.30;2.08;;;18.50;57.00;;;;;;5012125;28;20280;-57
2022/04/30 11:24:23;;;;;;;3.05;2.53;;;18.50;56.90;;;;;;5011836;28;20246;-56
2022/04/30 11:26:58;;;;;;;2.97;2.40;;;18.50;56.90;;;;;;5012175;28;20778;-57
2022/04/30 11:29:30;;;;;;;2.85;2.35;;;18.50;56.90;;;;;;5004767;28;20201;-59
2022/04/30 11:32:01;;;;;;;2.85;2.40;;;18.50;56.90;;;;;;5011290;28;20197;-58
2022/04/30 11:34:31;;;;;;;2.63;2.10;;;18.50;56.90;;;;;;5010342;28;20204;-55
2022/04/30 11:37:04;;;;;;;2.40;2.20;;;18.50;57.00;;;;;;5010258;28;20213;-57
2022/04/30 11:39:37;;;;;;;2.58;2.38;;;18.50;57.00;;;;;;5007982;28;20228;-57
2022/04/30 11:42:08;;;;;;;2.65;2.38;;;18.50;57.00;;;;;;5010610;28;20229;-57
2022/04/30 11:44:38;;;;;;;2.67;2.38;;;18.50;56.90;;;;;;5011418;28;20754;-58
2022/04/30 11:47:11;;;;;;;2.63;2.10;;;18.50;56.90;;;;;;5009969;28;20349;-58
2022/04/30 11:49:41;;;;;;;2.63;2.10;;;18.50;57.00;;;;;;5011223;28;20243;-58
2022/04/30 11:52:16;;;;;;;2.97;2.25;;;18.50;56.90;;;;;;5009133;28;20206;-59
2022/04/30 11:54:47;;;;;;;2.38;2.13;;;18.50;56.90;;;;;;5003033;28;20208;-57
2022/04/30 11:57:18;;;;;;;2.40;2.20;;;18.50;56.90;;;;;;5007358;28;20267;-59
2022/04/30 11:59:48;;;;;;;2.20;2.00;;;18.50;56.80;;;;;;5010138;28;20201;-56
2022/04/30 12:02:19;;;;;;;3.10;2.10;;;18.50;56.90;;;;;;5010103;28;20286;-57
2022/04/30 12:04:50;;;;;;;2.55;2.35;;;18.50;56.90;;;;;;5007417;28;20220;-58
2022/04/30 12:07:23;;;;;;;2.28;1.90;;;18.50;56.80;;;;;;5005012;28;20228;-55
2022/04/30 12:09:57;;;;;;;2.10;1.90;;;18.50;56.80;;;;;;5009060;28;20266;-58
2022/04/30 12:12:28;;;;;;;2.15;1.90;;;18.50;56.80;;;;;;5006466;28;20197;-58
2022/04/30 12:14:59;;;;;;;2.40;2.03;;;18.50;56.80;;;;;;5007634;28;20730;-56
2022/04/30 12:17:35;;;;;;;2.15;1.95;;;18.50;56.90;;;;;;5011096;28;20213;-58
2022/04/30 12:26:05;;;;;;;2.55;1.80;;;18.50;57.10;;;;;;4948126;29;20370;-56
2022/04/30 12:28:47;;;;;;;4.72;2.28;;;18.50;57.10;;;;;;4989701;28;20271;-57
2022/04/30 12:31:18;;;;;;;2.08;1.90;;;18.50;57.10;;;;;;5010098;28;20211;-58
2022/04/30 12:33:50;;;;;;;2.10;1.90;;;18.50;57.10;;;;;;5010327;28;20201;-56
2022/04/30 12:36:21;;;;;;;1.67;1.58;;;18.50;57.10;;;;;;5010094;28;20225;-58
2022/04/30 12:39:00;;;;;;;2.00;1.80;;;18.50;57.00;;;;;;5010148;28;20656;-58
2022/04/30 12:41:31;;;;;;;2.55;1.85;;;18.50;57.00;;;;;;5010131;28;20193;-58
2022/04/30 12:44:02;;;;;;;2.30;2.10;;;18.50;57.00;;;;;;5009841;28;20317;-57
2022/04/30 12:46:32;;;;;;;2.15;1.90;;;18.50;56.90;;;;;;5010321;28;20278;-59
2022/04/30 12:49:03;;;;;;;2.00;1.80;;;18.50;56.90;;;;;;5010093;28;20204;-56
2022/04/30 12:51:33;;;;;;;2.70;2.00;;;18.50;56.90;;;;;;5010308;28;20402;-57
2022/04/30 12:54:06;;;;;;;2.67;2.28;;;18.50;56.90;;;;;;5009123;28;20197;-58
2022/04/30 12:56:39;;;;;;;2.00;1.80;;;18.50;56.90;;;;;;5009738;28;20221;-57
2022/04/30 12:59:10;;;;;;;1.77;1.67;;;18.50;56.90;;;;;;5009615;28;20224;-57
2022/04/30 13:01:41;;;;;;;1.60;1.50;;;18.50;56.90;;;;;;5010328;28;20197;-56
2022/04/30 13:04:12;;;;;;;2.50;1.90;;;18.50;56.90;;;;;;5009599;28;20294;-58
2022/04/30 13:06:43;;;;;;;2.05;1.80;;;18.50;56.90;;;;;;5007418;28;20225;-56
2022/04/30 13:14:48;;;;;;;1.80;1.70;;;18.50;56.90;;;;;;5009928;28;20212;-57
2022/04/30 13:17:19;;;;;;;1.90;1.67;;;18.40;56.80;;;;;;5009638;28;20217;-58
2022/04/30 13:19:51;;;;;;;1.70;1.60;;;18.40;56.80;;;;;;5009485;28;20200;-57
2022/04/30 13:22:21;;;;;;;2.05;1.80;;;18.40;56.80;;;;;;5008868;28;20193;-57
2022/04/30 13:24:53;;;;;;;2.25;1.90;;;18.50;56.90;;;;;;5008767;28;20571;-56
2022/04/30 13:27:24;;;;;;;1.70;1.60;;;18.50;56.90;;;;;;5006737;28;20285;-57
2022/04/30 13:29:54;;;;;;;2.10;1.90;;;18.50;56.90;;;;;;5006226;28;20247;-57
2022/04/30 13:32:25;;;;;;;2.38;1.98;;;18.40;57.00;;;;;;5009284;28;20185;-58
2022/04/30 13:34:55;;;;;;;1.80;1.55;;;18.50;56.80;;;;;;5008478;28;20193;-58
2022/04/30 13:37:26;;;;;;;1.98;1.77;;;18.50;56.80;;;;;;5008712;28;20224;-57
2022/04/30 13:39:58;;;;;;;1.75;1.65;;;18.40;56.80;;;;;;5009043;28;20220;-58
2022/04/30 13:42:29;;;;;;;1.60;1.50;;;18.50;56.80;;;;;;5001999;28;20205;-57
2022/04/30 13:44:59;;;;;;;2.22;1.88;;;18.50;56.80;;;;;;4992129;28;20276;-58
2022/04/30 13:47:30;;;;;;;2.08;1.83;;;18.40;56.80;;;;;;4991805;28;20244;-58
2022/04/30 13:50:01;;;;;;;1.60;1.50;;;18.40;56.80;;;;;;4990973;28;20588;-56
2022/04/30 13:52:32;;;;;;;1.50;1.40;;;18.40;56.80;;;;;;4990709;28;20252;-57